createdAt,value
2022-11-16T04:57:31.227Z,79.53
2022-11-16T05:00:34.046Z,82.75
2022-11-16T05:03:36.165Z,78.10
2022-11-16T05:06:39.291Z,79.20
2022-11-16T05:09:43.694Z,80.18
2022-11-16T05:12:46.767Z,80.22
2022-11-16T05:15:49.113Z,75.25
2022-11-16T05:19:10.346Z,74.45
2022-11-16T05:22:12.835Z,77.75
2022-11-16T05:25:15.540Z,68.47
2022-11-16T05:28:17.657Z,76.10
2022-11-16T05:31:19.935Z,73.00
2022-11-16T05:34:23.273Z,83.85
2022-11-16T05:37:26.733Z,72.70
2022-11-16T05:40:28.953Z,78.53
2022-11-16T05:43:31.412Z,85.25
2022-11-16T05:46:34.952Z,72.07
2022-11-16T05:49:37.571Z,68.70
2022-11-16T05:52:40.141Z,75.30
2022-11-16T05:55:43.196Z,74.47
2022-11-16T05:58:46.153Z,77.20
2022-11-16T06:01:50.069Z,70.07
2022-11-16T06:04:52.601Z,69.22
2022-11-16T06:07:56.193Z,66.72
2022-11-16T06:11:03.484Z,74.68
2022-11-16T06:14:06.204Z,77.75
2022-11-16T06:17:10.253Z,74.40
2022-11-16T06:20:12.546Z,71.20
2022-11-16T06:23:15.282Z,69.07
2022-11-16T06:26:17.374Z,75.68
2022-11-16T06:29:20.378Z,76.75
2022-11-16T06:32:22.424Z,70.62
2022-11-16T06:35:25.053Z,80.43
2022-11-16T06:38:28.531Z,68.32
2022-11-16T06:41:32.080Z,86.22
2022-11-16T06:44:34.323Z,69.15
2022-11-16T06:47:37.049Z,73.90
2022-11-16T06:50:39.396Z,73.85
2022-11-16T06:53:41.904Z,77.62
2022-11-16T06:56:44.112Z,71.20
2022-11-16T06:59:46.680Z,76.12
2022-11-16T07:02:49.177Z,89.32
2022-11-16T07:05:52.303Z,76.47
2022-11-16T07:08:55.246Z,72.40
2022-11-16T07:11:58.377Z,74.75
2022-11-16T07:15:00.548Z,74.50
2022-11-16T07:18:05.569Z,78.03
2022-11-16T07:21:11.324Z,81.55
2022-11-16T07:24:13.885Z,75.93
2022-11-16T07:27:18.141Z,77.95
2022-11-16T07:30:20.846Z,74.28
2022-11-16T07:33:23.160Z,77.10
2022-11-16T07:36:27.525Z,72.47
2022-11-16T07:39:29.713Z,74.57
2022-11-16T07:42:32.763Z,75.10
2022-11-16T07:45:35.183Z,77.10
2022-11-16T07:48:40.389Z,75.40
2022-11-16T07:51:47.642Z,77.25
2022-11-16T07:54:51.579Z,86.12
2022-11-16T07:57:53.942Z,77.78
2022-11-16T08:01:07.014Z,73.55
2022-11-16T08:04:09.700Z,72.18
2022-11-16T08:07:12.013Z,71.78
2022-11-16T08:10:15.156Z,77.78
2022-11-16T08:13:17.290Z,72.87
2022-11-16T08:16:21.676Z,79.22
2022-11-16T08:19:24.906Z,78.65
2022-11-16T08:22:28.079Z,75.05
2022-11-16T08:25:30.269Z,80.65
2022-11-16T08:28:33.905Z,78.15
2022-11-16T08:31:36.129Z,71.45
2022-11-16T08:34:39.804Z,79.25
2022-11-16T08:37:41.969Z,82.88
2022-11-16T08:40:45.828Z,76.60
2022-11-16T08:43:50.394Z,71.85
2022-11-16T08:46:53.013Z,69.10
2022-11-16T08:49:55.908Z,76.82
2022-11-16T08:53:00.613Z,82.85
2022-11-16T08:56:04.597Z,72.90
2022-11-16T08:59:07.193Z,82.88
2022-11-16T09:02:10.131Z,72.75
2022-11-16T09:05:12.948Z,78.40
2022-11-16T09:08:15.452Z,72.43
2022-11-16T09:11:20.280Z,76.80
2022-11-16T09:14:22.395Z,74.70
2022-11-16T09:17:24.690Z,78.68
2022-11-16T09:20:26.758Z,77.60
2022-11-16T09:23:29.068Z,71.43
2022-11-16T09:26:31.140Z,74.50
2022-11-16T09:29:34.604Z,74.35
2022-11-16T09:32:36.659Z,73.30
2022-11-16T09:35:40.167Z,66.47
2022-11-16T09:39:19.007Z,66.82
2022-11-16T09:42:30.209Z,68.55
2022-11-16T09:45:49.875Z,74.28
2022-11-16T09:48:56.351Z,74.22
2022-11-16T09:55:24.828Z,69.03
2022-11-16T09:58:49.659Z,69.80
2022-11-16T10:01:58.497Z,72.50
2022-11-16T10:05:25.878Z,68.10
2022-11-16T10:08:44.767Z,68.75
2022-11-16T10:12:09.003Z,72.10
2022-11-16T10:15:23.753Z,67.20
2022-11-16T10:18:41.543Z,65.93
2022-11-16T10:22:22.815Z,66.45
2022-11-16T10:25:32.929Z,63.42
2022-11-16T10:28:51.784Z,63.42
2022-11-16T10:32:07.124Z,61.63
2022-11-16T10:35:11.877Z,65.30
2022-11-16T10:38:21.587Z,60.75
2022-11-16T10:42:06.100Z,54.50
2022-11-16T10:45:21.703Z,61.58
2022-11-16T10:48:29.224Z,61.35
2022-11-16T10:51:31.512Z,57.65
2022-11-16T10:54:33.544Z,65.10
2022-11-16T10:57:56.497Z,57.38
2022-11-16T11:00:59.118Z,59.75
2022-11-16T11:04:22.189Z,60.45
2022-11-16T11:07:33.170Z,58.83
2022-11-16T11:10:40.570Z,54.63
2022-11-16T11:13:42.627Z,59.90
2022-11-16T11:16:45.083Z,54.60
2022-11-16T11:19:56.434Z,59.35
2022-11-16T11:23:02.468Z,60.08
2022-11-16T11:26:05.359Z,63.20
2022-11-16T11:29:20.844Z,59.97
2022-11-16T11:32:30.758Z,59.78
2022-11-16T11:35:33.057Z,62.00
2022-11-16T11:38:57.482Z,61.17
2022-11-16T11:42:02.590Z,61.42
2022-11-16T11:45:13.648Z,56.83
2022-11-16T11:48:28.032Z,61.90
2022-11-16T11:51:41.045Z,64.00
2022-11-16T11:54:47.705Z,57.30
2022-11-16T12:01:13.607Z,60.40
2022-11-16T12:04:42.443Z,61.05
2022-11-16T12:07:50.580Z,57.97
2022-11-16T12:10:57.627Z,60.38
2022-11-16T12:14:15.212Z,57.58
2022-11-16T12:17:54.425Z,56.40
2022-11-16T12:21:13.386Z,57.55
2022-11-16T12:24:27.196Z,56.25
2022-11-16T12:27:46.861Z,56.97
2022-11-16T12:31:10.248Z,58.35
2022-11-16T12:34:39.345Z,49.50
2022-11-16T12:38:12.522Z,50.10
2022-11-16T12:41:26.388Z,47.60
2022-11-16T12:45:17.185Z,48.75
2022-11-16T12:48:47.705Z,45.30
2022-11-16T12:51:56.223Z,50.47
2022-11-16T12:55:36.553Z,51.22
2022-11-16T12:58:53.361Z,48.28
2022-11-16T13:02:04.774Z,40.83
2022-11-16T13:05:23.204Z,45.75
2022-11-16T13:08:50.609Z,43.53
2022-11-16T13:11:58.098Z,42.15
2022-11-16T13:15:02.835Z,43.55
2022-11-16T13:18:15.648Z,44.85
2022-11-16T13:21:29.549Z,43.55
2022-11-16T13:24:46.709Z,36.08
2022-11-16T13:28:14.483Z,46.00
2022-11-16T13:31:32.001Z,39.50
2022-11-16T13:34:38.000Z,37.35
2022-11-16T13:37:40.323Z,37.97
2022-11-16T13:40:42.751Z,42.97
2022-11-16T13:43:49.189Z,36.92
2022-11-16T13:46:56.888Z,37.28
2022-11-16T13:50:02.028Z,39.63
2022-11-16T13:56:51.320Z,34.03
2022-11-16T14:00:02.801Z,36.83
2022-11-16T14:03:28.042Z,33.00
2022-11-16T14:06:30.239Z,33.28
2022-11-16T14:09:47.915Z,31.48
2022-11-16T14:12:52.787Z,30.77
2022-11-16T14:16:19.732Z,35.40
2022-11-16T14:19:48.505Z,31.20
2022-11-16T14:23:15.221Z,31.65
2022-11-16T14:26:39.356Z,32.80
2022-11-16T14:30:02.482Z,30.20
2022-11-16T14:33:04.779Z,34.40
2022-11-16T14:36:09.287Z,32.55
2022-11-16T14:39:31.565Z,29.25
2022-11-16T14:43:09.881Z,24.37
2022-11-16T14:46:35.884Z,23.10
2022-11-16T14:49:46.915Z,21.62
2022-11-16T14:52:52.433Z,25.17
2022-11-16T14:56:06.433Z,23.70
2022-11-16T14:59:16.543Z,23.17
2022-11-16T15:02:27.276Z,22.83
2022-11-16T15:05:34.758Z,25.15
2022-11-16T15:08:48.045Z,26.83
2022-11-16T15:12:10.383Z,22.37
2022-11-16T15:15:12.437Z,24.23
2022-11-16T15:18:20.499Z,25.83
2022-11-16T15:21:23.311Z,28.60
2022-11-16T15:24:31.506Z,26.20
2022-11-16T15:27:38.377Z,26.95
2022-11-16T15:30:41.381Z,28.10
2022-11-16T15:33:45.216Z,27.75
2022-11-16T15:36:48.681Z,27.70
2022-11-16T15:39:50.726Z,30.83
2022-11-16T15:42:53.640Z,29.10
2022-11-16T15:45:56.099Z,29.15
2022-11-16T15:48:59.041Z,30.65
2022-11-16T15:52:01.639Z,26.77
2022-11-16T15:55:04.172Z,29.80
2022-11-16T15:58:14.765Z,29.02
2022-11-16T16:01:17.725Z,30.23
2022-11-16T16:04:20.618Z,29.90
2022-11-16T16:07:42.276Z,29.02
2022-11-16T16:10:44.677Z,32.25
2022-11-16T16:14:02.023Z,28.25
2022-11-16T16:17:04.352Z,30.62
2022-11-16T16:20:07.530Z,31.83
2022-11-16T16:23:16.180Z,31.50
2022-11-16T16:26:18.288Z,29.98
2022-11-16T16:29:20.594Z,27.55
2022-11-16T16:32:36.767Z,30.10
2022-11-16T16:35:39.060Z,28.65
2022-11-16T16:38:41.460Z,25.85
2022-11-16T16:41:43.772Z,23.65
2022-11-16T16:44:47.276Z,28.48
2022-11-16T16:47:49.693Z,25.02
2022-11-16T16:50:51.810Z,24.42
